Blu 470 — ZHBX8 — position and weather

sailwx.info

Track history (hours):
 
Tides and Currents Weather Stations Pressure Air Temp Water Temp Dewpoint Dewpoint Depression Visibility Wind Speed Wind Dir Waves Ship Positions

Blu 470

Last reported at 2018-Jun-17 17:35 UTC. Time now 2018-Jun-18 11:37 UTC.
Position N 43°16' E 006°40'.

Length 50 m; draft 3.5 m.

Type: Pleasure craft. MMSI: 319482000.

Date/timePositionNaut miles runAvg speedWind from/ knotsBaromVisibWave heightAir tempDewpointWater temp
2018-Jun-17 17:35N 43°16' E 006°40'0 0.1
2018-Jun-17 17:29N 43°16' E 006°40'0 0.0
2018-Jun-17 16:47N 43°16' E 006°40'0 0.0
2018-Jun-17 16:29N 43°16' E 006°40'0 0.0
2018-Jun-17 15:50N 43°16' E 006°40'0 0.0
2018-Jun-17 15:23N 43°16' E 006°40'0 0.0
2018-Jun-17 14:59N 43°16' E 006°40'0 0.0
2018-Jun-17 14:29N 43°16' E 006°40'0 0.0
2018-Jun-17 13:41N 43°16' E 006°40'0 0.0
2018-Jun-17 13:26N 43°16' E 006°40'0 0.0
2018-Jun-17 12:53N 43°16' E 006°40'0 0.3
2018-Jun-17 12:30N 43°16' E 006°40'1 0.1
2018-Jun-16 16:20N 43°16' E 006°38'0 0.9
2018-Jun-16 16:00N 43°17' E 006°38'3 5.7
2018-Jun-16 15:31N 43°17' E 006°42'4 2.3
2018-Jun-16 13:51N 43°14' E 006°40'0 0.0
2018-Jun-16 13:30N 43°14' E 006°40'0 0.0
2018-Jun-16 13:00N 43°14' E 006°40'0 0.0
2018-Jun-16 12:30N 43°13' E 006°40'0 0.0
2018-Jun-16 12:00N 43°13' E 006°40'0 0.0
2018-Jun-16 11:30N 43°13' E 006°40'1 2.4
2018-Jun-16 11:00N 43°14' E 006°42'16 0.8
2018-Jun-15 15:27N 43°25' E 006°57'612.5
2018-Jun-15 15:00N 43°29' E 007°03'612.7
2018-Jun-15 14:30N 43°32' E 007°11'712.8
2018-Jun-15 13:58N 43°37' E 007°17'611.9
2018-Jun-15 13:30N 43°42' E 007°21'2 0.5
2018-Jun-15 09:26N 43°42' E 007°24'2 5.1
2018-Jun-15 09:00N 43°44' E 007°26'0 0.0
2018-Jun-14 19:28N 43°44' E 007°26'0 0.0
2018-Jun-14 16:44N 43°44' E 007°26'0 0.1
2018-Jun-14 16:30N 43°44' E 007°26'1 1.4
2018-Jun-14 16:00N 43°44' E 007°27'13 2.1
2018-Jun-14 09:59N 43°38' E 007°11'1 0.0
2018-Jun-13 16:16N 43°38' E 007°10'310.8
2018-Jun-13 15:57N 43°36' E 007°14'1011.4
2018-Jun-13 15:03N 43°27' E 007°20'011.6
2018-Jun-13 15:00N 43°27' E 007°20'5 9.9
2018-Jun-13 14:28N 43°22' E 007°17'810.6
2018-Jun-13 13:44N 43°18' E 007°08'310.9
2018-Jun-13 13:30N 43°17' E 007°05'  
2018-Jun-10 23:47N 43°16' E 006°40'0 0.0
2018-Jun-10 22:47N 43°16' E 006°40'  
Track history (hours):
 
Tides and Currents Weather Stations Pressure Air Temp Water Temp Dewpoint Dewpoint Depression Visibility Wind Speed Wind Dir Waves Ship Positions

Blu 470

Last reported at 2018-Jun-17 17:35 UTC. Time now 2018-Jun-18 11:37 UTC.
Position N 43°16' E 006°40'.

Length 50 m; draft 3.5 m.

Type: Pleasure craft. MMSI: 319482000.

Date/timePositionNaut miles runAvg speedWind from/ knotsBaromVisibWave heightAir tempDewpointWater temp
2018-Jun-17 17:35N 43°16' E 006°40'0 0.1
2018-Jun-17 17:29N 43°16' E 006°40'0 0.0
2018-Jun-17 16:47N 43°16' E 006°40'0 0.0
2018-Jun-17 16:29N 43°16' E 006°40'0 0.0
2018-Jun-17 15:50N 43°16' E 006°40'0 0.0
2018-Jun-17 15:23N 43°16' E 006°40'0 0.0
2018-Jun-17 14:59N 43°16' E 006°40'0 0.0
2018-Jun-17 14:29N 43°16' E 006°40'0 0.0
2018-Jun-17 13:41N 43°16' E 006°40'0 0.0
2018-Jun-17 13:26N 43°16' E 006°40'0 0.0
2018-Jun-17 12:53N 43°16' E 006°40'0 0.3
2018-Jun-17 12:30N 43°16' E 006°40'1 0.1
2018-Jun-16 16:20N 43°16' E 006°38'0 0.9
2018-Jun-16 16:00N 43°17' E 006°38'3 5.7
2018-Jun-16 15:31N 43°17' E 006°42'4 2.3
2018-Jun-16 13:51N 43°14' E 006°40'0 0.0
2018-Jun-16 13:30N 43°14' E 006°40'0 0.0
2018-Jun-16 13:00N 43°14' E 006°40'0 0.0
2018-Jun-16 12:30N 43°13' E 006°40'0 0.0
2018-Jun-16 12:00N 43°13' E 006°40'0 0.0
2018-Jun-16 11:30N 43°13' E 006°40'1 2.4
2018-Jun-16 11:00N 43°14' E 006°42'16 0.8
2018-Jun-15 15:27N 43°25' E 006°57'612.5
2018-Jun-15 15:00N 43°29' E 007°03'612.7
2018-Jun-15 14:30N 43°32' E 007°11'712.8
2018-Jun-15 13:58N 43°37' E 007°17'611.9
2018-Jun-15 13:30N 43°42' E 007°21'2 0.5
2018-Jun-15 09:26N 43°42' E 007°24'2 5.1
2018-Jun-15 09:00N 43°44' E 007°26'0 0.0
2018-Jun-14 19:28N 43°44' E 007°26'0 0.0
2018-Jun-14 16:44N 43°44' E 007°26'0 0.1
2018-Jun-14 16:30N 43°44' E 007°26'1 1.4
2018-Jun-14 16:00N 43°44' E 007°27'13 2.1
2018-Jun-14 09:59N 43°38' E 007°11'1 0.0
2018-Jun-13 16:16N 43°38' E 007°10'310.8
2018-Jun-13 15:57N 43°36' E 007°14'1011.4
2018-Jun-13 15:03N 43°27' E 007°20'011.6
2018-Jun-13 15:00N 43°27' E 007°20'5 9.9
2018-Jun-13 14:28N 43°22' E 007°17'810.6
2018-Jun-13 13:44N 43°18' E 007°08'310.9
2018-Jun-13 13:30N 43°17' E 007°05'  
2018-Jun-10 23:47N 43°16' E 006°40'0 0.0
2018-Jun-10 22:47N 43°16' E 006°40'  

Dump ship's entire track history